sensor_id;sensor_type;location;lat;lon;timestamp;temperature;humidity
32187;DHT22;18686;53.084;8.872;2023-02-01T00:01:23;6.10;99.90
32187;DHT22;18686;53.084;8.872;2023-02-01T00:03:52;6.10;99.90
32187;DHT22;18686;53.084;8.872;2023-02-01T00:06:20;6.10;99.90
32187;DHT22;18686;53.084;8.872;2023-02-01T00:08:48;6.10;99.90
32187;DHT22;18686;53.084;8.872;2023-02-01T00:11:16;6.20;99.90
32187;DHT22;18686;53.084;8.872;2023-02-01T00:13:45;6.20;99.90
32187;DHT22;18686;53.084;8.872;2023-02-01T00:16:17;6.20;99.90
32187;DHT22;18686;53.084;8.872;2023-02-01T00:18:48;6.30;99.90
32187;DHT22;18686;53.084;8.872;2023-02-01T00:21:18;6.30;99.90
32187;DHT22;18686;53.084;8.872;2023-02-01T00:23:47;6.30;99.90
32187;DHT22;18686;53.084;8.872;2023-02-01T00:26:17;6.30;99.90
32187;DHT22;18686;53.084;8.872;2023-02-01T00:28:46;6.30;99.90
32187;DHT22;18686;53.084;8.872;2023-02-01T00:31:15;6.30;99.90
32187;DHT22;18686;53.084;8.872;2023-02-01T00:33:46;6.30;99.90
32187;DHT22;18686;53.084;8.872;2023-02-01T00:36:15;6.30;99.90
32187;DHT22;18686;53.084;8.872;2023-02-01T00:38:44;6.30;99.90
32187;DHT22;18686;53.084;8.872;2023-02-01T00:41:13;6.30;99.90
32187;DHT22;18686;53.084;8.872;2023-02-01T00:43:43;6.30;99.90
32187;DHT22;18686;53.084;8.872;2023-02-01T00:46:12;6.40;99.90
32187;DHT22;18686;53.084;8.872;2023-02-01T00:48:42;6.40;99.90
32187;DHT22;18686;53.084;8.872;2023-02-01T00:51:12;6.40;99.90
32187;DHT22;18686;53.084;8.872;2023-02-01T00:53:41;6.30;99.90
32187;DHT22;18686;53.084;8.872;2023-02-01T00:56:10;6.30;99.90
32187;DHT22;18686;53.084;8.872;2023-02-01T00:58:39;6.30;99.90
32187;DHT22;18686;53.084;8.872;2023-02-01T01:01:13;6.40;99.90
32187;DHT22;18686;53.084;8.872;2023-02-01T01:03:44;6.40;99.90
32187;DHT22;18686;53.084;8.872;2023-02-01T01:06:14;6.40;99.90
32187;DHT22;18686;53.084;8.872;2023-02-01T01:08:43;6.50;99.90
32187;DHT22;18686;53.084;8.872;2023-02-01T01:11:13;6.50;99.90
32187;DHT22;18686;53.084;8.872;2023-02-01T01:13:42;6.50;99.90
32187;DHT22;18686;53.084;8.872;2023-02-01T01:16:10;6.50;99.90
32187;DHT22;18686;53.084;8.872;2023-02-01T01:18:39;6.50;99.90
32187;DHT22;18686;53.084;8.872;2023-02-01T01:21:11;6.50;99.90
32187;DHT22;18686;53.084;8.872;2023-02-01T01:23:40;6.50;99.90
32187;DHT22;18686;53.084;8.872;2023-02-01T01:26:11;6.60;99.90
32187;DHT22;18686;53.084;8.872;2023-02-01T01:28:40;6.60;99.90
32187;DHT22;18686;53.084;8.872;2023-02-01T01:31:09;6.70;99.90
32187;DHT22;18686;53.084;8.872;2023-02-01T01:33:38;6.70;99.90
32187;DHT22;18686;53.084;8.872;2023-02-01T01:36:09;6.70;99.90
32187;DHT22;18686;53.084;8.872;2023-02-01T01:38:39;6.70;99.90
32187;DHT22;18686;53.084;8.872;2023-02-01T01:41:08;6.80;99.90
32187;DHT22;18686;53.084;8.872;2023-02-01T01:43:52;6.80;99.90
32187;DHT22;18686;53.084;8.872;2023-02-01T01:46:25;6.80;99.90
32187;DHT22;18686;53.084;8.872;2023-02-01T01:48:59;6.90;99.90
32187;DHT22;18686;53.084;8.872;2023-02-01T01:51:35;6.90;99.90
32187;DHT22;18686;53.084;8.872;2023-02-01T01:54:11;6.90;99.90
32187;DHT22;18686;53.084;8.872;2023-02-01T01:56:44;6.90;99.90
32187;DHT22;18686;53.084;8.872;2023-02-01T01:59:13;6.90;99.90
32187;DHT22;18686;53.084;8.872;2023-02-01T02:01:42;6.90;99.90
32187;DHT22;18686;53.084;8.872;2023-02-01T02:04:11;6.90;99.90
32187;DHT22;18686;53.084;8.872;2023-02-01T02:06:45;6.90;99.90
32187;DHT22;18686;53.084;8.872;2023-02-01T02:09:16;6.90;99.90
32187;DHT22;18686;53.084;8.872;2023-02-01T02:11:44;6.90;99.90
32187;DHT22;18686;53.084;8.872;2023-02-01T02:14:14;6.90;99.90
32187;DHT22;18686;53.084;8.872;2023-02-01T02:17:05;6.90;99.90
32187;DHT22;18686;53.084;8.872;2023-02-01T02:20:12;6.80;99.90
32187;DHT22;18686;53.084;8.872;2023-02-01T02:23:18;6.80;99.90
32187;DHT22;18686;53.084;8.872;2023-02-01T02:29:12;6.70;99.90
32187;DHT22;18686;53.084;8.872;2023-02-01T02:32:03;6.70;99.90
32187;DHT22;18686;53.084;8.872;2023-02-01T02:34:37;6.60;99.90
32187;DHT22;18686;53.084;8.872;2023-02-01T02:37:15;6.60;99.90
32187;DHT22;18686;53.084;8.872;2023-02-01T02:39:50;6.60;99.90
32187;DHT22;18686;53.084;8.872;2023-02-01T02:42:25;6.60;99.90
32187;DHT22;18686;53.084;8.872;2023-02-01T02:45:19;6.60;99.90
32187;DHT22;18686;53.084;8.872;2023-02-01T02:48:12;6.60;99.90
32187;DHT22;18686;53.084;8.872;2023-02-01T02:50:46;6.60;99.90
32187;DHT22;18686;53.084;8.872;2023-02-01T02:53:39;6.60;99.90
32187;DHT22;18686;53.084;8.872;2023-02-01T02:56:30;6.60;99.90
32187;DHT22;18686;53.084;8.872;2023-02-01T02:59:18;6.70;99.90
32187;DHT22;18686;53.084;8.872;2023-02-01T03:02:05;6.70;99.90
32187;DHT22;18686;53.084;8.872;2023-02-01T03:04:52;6.70;99.90
32187;DHT22;18686;53.084;8.872;2023-02-01T03:07:52;6.60;99.90
32187;DHT22;18686;53.084;8.872;2023-02-01T03:10:27;6.60;99.90
32187;DHT22;18686;53.084;8.872;2023-02-01T03:13:01;6.60;99.90
32187;DHT22;18686;53.084;8.872;2023-02-01T03:15:35;6.60;99.90
32187;DHT22;18686;53.084;8.872;2023-02-01T03:18:10;6.50;99.90
32187;DHT22;18686;53.084;8.872;2023-02-01T03:20:40;6.60;99.90
32187;DHT22;18686;53.084;8.872;2023-02-01T03:23:14;6.60;99.90
32187;DHT22;18686;53.084;8.872;2023-02-01T03:25:44;6.60;99.90
32187;DHT22;18686;53.084;8.872;2023-02-01T03:28:16;6.70;99.90
32187;DHT22;18686;53.084;8.872;2023-02-01T03:30:48;6.70;99.90
32187;DHT22;18686;53.084;8.872;2023-02-01T03:33:20;6.70;99.90
32187;DHT22;18686;53.084;8.872;2023-02-01T03:35:56;6.70;99.90
32187;DHT22;18686;53.084;8.872;2023-02-01T03:38:30;6.70;99.90
32187;DHT22;18686;53.084;8.872;2023-02-01T03:41:09;6.60;99.90
32187;DHT22;18686;53.084;8.872;2023-02-01T03:43:46;6.50;99.90
32187;DHT22;18686;53.084;8.872;2023-02-01T03:46:20;6.40;99.90
32187;DHT22;18686;53.084;8.872;2023-02-01T03:48:51;6.30;99.90
32187;DHT22;18686;53.084;8.872;2023-02-01T03:51:22;6.20;99.90
32187;DHT22;18686;53.084;8.872;2023-02-01T03:53:53;6.20;99.90
32187;DHT22;18686;53.084;8.872;2023-02-01T03:56:23;6.10;99.90
32187;DHT22;18686;53.084;8.872;2023-02-01T03:58:53;6.00;99.90
32187;DHT22;18686;53.084;8.872;2023-02-01T04:01:32;5.90;99.90
32187;DHT22;18686;53.084;8.872;2023-02-01T04:04:01;5.90;99.90
32187;DHT22;18686;53.084;8.872;2023-02-01T04:06:29;5.80;99.90
32187;DHT22;18686;53.084;8.872;2023-02-01T04:09:03;5.80;99.90
32187;DHT22;18686;53.084;8.872;2023-02-01T04:11:31;5.80;99.90
32187;DHT22;18686;53.084;8.872;2023-02-01T04:13:59;5.80;99.90
32187;DHT22;18686;53.084;8.872;2023-02-01T04:16:31;5.80;99.90
32187;DHT22;18686;53.084;8.872;2023-02-01T04:19:00;5.70;99.90
32187;DHT22;18686;53.084;8.872;2023-02-01T04:21:29;5.60;99.90
32187;DHT22;18686;53.084;8.872;2023-02-01T04:23:58;5.60;99.90
32187;DHT22;18686;53.084;8.872;2023-02-01T04:26:28;5.60;99.90
32187;DHT22;18686;53.084;8.872;2023-02-01T04:28:56;5.50;99.90
32187;DHT22;18686;53.084;8.872;2023-02-01T04:31:24;5.50;99.90
32187;DHT22;18686;53.084;8.872;2023-02-01T04:33:55;5.50;99.90
32187;DHT22;18686;53.084;8.872;2023-02-01T04:36:24;5.40;99.90
32187;DHT22;18686;53.084;8.872;2023-02-01T04:38:52;5.50;99.90
32187;DHT22;18686;53.084;8.872;2023-02-01T04:41:21;5.40;99.90
32187;DHT22;18686;53.084;8.872;2023-02-01T04:43:51;5.40;99.90
32187;DHT22;18686;53.084;8.872;2023-02-01T04:46:19;5.40;99.90
32187;DHT22;18686;53.084;8.872;2023-02-01T04:48:48;5.40;99.90
32187;DHT22;18686;53.084;8.872;2023-02-01T04:51:16;5.40;99.90
32187;DHT22;18686;53.084;8.872;2023-02-01T04:53:45;5.50;99.90
32187;DHT22;18686;53.084;8.872;2023-02-01T04:56:13;5.50;99.90
32187;DHT22;18686;53.084;8.872;2023-02-01T04:58:41;5.40;99.90
32187;DHT22;18686;53.084;8.872;2023-02-01T05:01:11;5.50;99.90
32187;DHT22;18686;53.084;8.872;2023-02-01T05:03:39;5.50;99.90
32187;DHT22;18686;53.084;8.872;2023-02-01T05:06:07;5.50;99.90
32187;DHT22;18686;53.084;8.872;2023-02-01T05:08:35;5.50;99.90
32187;DHT22;18686;53.084;8.872;2023-02-01T05:11:04;5.50;99.90
32187;DHT22;18686;53.084;8.872;2023-02-01T05:13:33;5.50;99.90
32187;DHT22;18686;53.084;8.872;2023-02-01T05:16:16;5.60;99.90
32187;DHT22;18686;53.084;8.872;2023-02-01T05:18:44;5.60;99.90
32187;DHT22;18686;53.084;8.872;2023-02-01T05:21:13;5.60;99.90
32187;DHT22;18686;53.084;8.872;2023-02-01T05:23:41;5.60;99.90
32187;DHT22;18686;53.084;8.872;2023-02-01T05:26:24;5.60;99.90
32187;DHT22;18686;53.084;8.872;2023-02-01T05:28:53;5.70;99.90
32187;DHT22;18686;53.084;8.872;2023-02-01T05:31:22;5.70;99.90
32187;DHT22;18686;53.084;8.872;2023-02-01T05:33:52;5.70;99.90
32187;DHT22;18686;53.084;8.872;2023-02-01T05:36:20;5.70;99.90
32187;DHT22;18686;53.084;8.872;2023-02-01T05:38:48;5.70;99.90
32187;DHT22;18686;53.084;8.872;2023-02-01T05:41:17;5.70;99.90
32187;DHT22;18686;53.084;8.872;2023-02-01T05:43:45;5.70;99.90
32187;DHT22;18686;53.084;8.872;2023-02-01T05:46:13;5.70;99.90
32187;DHT22;18686;53.084;8.872;2023-02-01T05:48:43;5.70;99.90
32187;DHT22;18686;53.084;8.872;2023-02-01T05:51:12;5.70;99.90
32187;DHT22;18686;53.084;8.872;2023-02-01T05:53:41;5.70;99.90
32187;DHT22;18686;53.084;8.872;2023-02-01T05:56:09;5.70;99.90
32187;DHT22;18686;53.084;8.872;2023-02-01T05:58:37;5.70;99.90
32187;DHT22;18686;53.084;8.872;2023-02-01T06:01:05;5.70;99.90
32187;DHT22;18686;53.084;8.872;2023-02-01T06:03:33;5.70;99.90
32187;DHT22;18686;53.084;8.872;2023-02-01T06:06:03;5.80;99.90
32187;DHT22;18686;53.084;8.872;2023-02-01T06:08:32;5.80;99.90
32187;DHT22;18686;53.084;8.872;2023-02-01T06:11:02;5.80;99.90
32187;DHT22;18686;53.084;8.872;2023-02-01T06:13:32;5.80;99.90
32187;DHT22;18686;53.084;8.872;2023-02-01T06:16:01;5.80;99.90
32187;DHT22;18686;53.084;8.872;2023-02-01T06:18:29;5.80;99.90
32187;DHT22;18686;53.084;8.872;2023-02-01T06:20:59;5.80;99.90
32187;DHT22;18686;53.084;8.872;2023-02-01T06:23:29;5.80;99.90
32187;DHT22;18686;53.084;8.872;2023-02-01T06:25:59;5.80;99.90
32187;DHT22;18686;53.084;8.872;2023-02-01T06:28:28;5.80;99.90
32187;DHT22;18686;53.084;8.872;2023-02-01T06:30:56;5.80;99.90
32187;DHT22;18686;53.084;8.872;2023-02-01T06:33:25;5.70;99.90
32187;DHT22;18686;53.084;8.872;2023-02-01T06:35:57;5.70;99.90
32187;DHT22;18686;53.084;8.872;2023-02-01T06:38:26;5.70;99.90
32187;DHT22;18686;53.084;8.872;2023-02-01T06:40:57;5.70;99.90
32187;DHT22;18686;53.084;8.872;2023-02-01T06:43:26;5.60;99.90
32187;DHT22;18686;53.084;8.872;2023-02-01T06:45:59;5.60;99.90
32187;DHT22;18686;53.084;8.872;2023-02-01T06:48:28;5.60;99.90
32187;DHT22;18686;53.084;8.872;2023-02-01T06:50:57;5.60;99.90
32187;DHT22;18686;53.084;8.872;2023-02-01T06:53:25;5.60;99.90
32187;DHT22;18686;53.084;8.872;2023-02-01T06:55:56;5.50;99.90
32187;DHT22;18686;53.084;8.872;2023-02-01T06:58:28;5.50;99.90
32187;DHT22;18686;53.084;8.872;2023-02-01T07:00:57;5.50;99.90
32187;DHT22;18686;53.084;8.872;2023-02-01T07:03:25;5.50;99.90
32187;DHT22;18686;53.084;8.872;2023-02-01T07:05:55;5.60;99.90
32187;DHT22;18686;53.084;8.872;2023-02-01T07:08:26;5.70;99.90
32187;DHT22;18686;53.084;8.872;2023-02-01T07:10:56;5.80;99.90
32187;DHT22;18686;53.084;8.872;2023-02-01T07:13:24;5.90;99.90
32187;DHT22;18686;53.084;8.872;2023-02-01T07:15:53;6.00;99.90
32187;DHT22;18686;53.084;8.872;2023-02-01T07:18:21;6.00;99.90
32187;DHT22;18686;53.084;8.872;2023-02-01T07:20:50;6.00;99.90
32187;DHT22;18686;53.084;8.872;2023-02-01T07:23:18;6.00;99.90
32187;DHT22;18686;53.084;8.872;2023-02-01T07:25:47;6.00;99.90
32187;DHT22;18686;53.084;8.872;2023-02-01T07:28:16;6.00;99.90
32187;DHT22;18686;53.084;8.872;2023-02-01T07:30:45;6.00;99.90
32187;DHT22;18686;53.084;8.872;2023-02-01T07:33:21;6.00;99.90
32187;DHT22;18686;53.084;8.872;2023-02-01T07:35:54;6.00;99.90
32187;DHT22;18686;53.084;8.872;2023-02-01T07:38:22;6.00;99.90
32187;DHT22;18686;53.084;8.872;2023-02-01T07:40:50;5.90;99.90
32187;DHT22;18686;53.084;8.872;2023-02-01T07:43:20;5.90;99.90
32187;DHT22;18686;53.084;8.872;2023-02-01T07:45:51;5.80;99.90
32187;DHT22;18686;53.084;8.872;2023-02-01T07:48:20;5.80;99.90
32187;DHT22;18686;53.084;8.872;2023-02-01T07:50:57;5.80;99.90
32187;DHT22;18686;53.084;8.872;2023-02-01T07:53:25;5.80;99.90
32187;DHT22;18686;53.084;8.872;2023-02-01T07:55:54;5.80;99.90
32187;DHT22;18686;53.084;8.872;2023-02-01T07:58:25;5.90;99.90
32187;DHT22;18686;53.084;8.872;2023-02-01T08:00:54;5.90;99.90
32187;DHT22;18686;53.084;8.872;2023-02-01T08:03:40;5.90;99.90
32187;DHT22;18686;53.084;8.872;2023-02-01T08:06:09;5.90;99.90
32187;DHT22;18686;53.084;8.872;2023-02-01T08:08:37;6.00;99.90
32187;DHT22;18686;53.084;8.872;2023-02-01T08:11:06;6.10;99.90
32187;DHT22;18686;53.084;8.872;2023-02-01T08:13:36;6.20;99.90
32187;DHT22;18686;53.084;8.872;2023-02-01T08:16:06;6.40;99.90
32187;DHT22;18686;53.084;8.872;2023-02-01T08:18:35;6.60;99.90
32187;DHT22;18686;53.084;8.872;2023-02-01T08:21:06;6.80;99.90
32187;DHT22;18686;53.084;8.872;2023-02-01T08:23:35;6.90;99.90
32187;DHT22;18686;53.084;8.872;2023-02-01T08:26:09;7.00;99.90
32187;DHT22;18686;53.084;8.872;2023-02-01T08:28:40;7.00;99.90
32187;DHT22;18686;53.084;8.872;2023-02-01T08:31:11;7.00;99.90
32187;DHT22;18686;53.084;8.872;2023-02-01T08:33:43;6.90;99.90
32187;DHT22;18686;53.084;8.872;2023-02-01T08:36:11;7.00;99.90
32187;DHT22;18686;53.084;8.872;2023-02-01T08:38:39;7.20;99.90
32187;DHT22;18686;53.084;8.872;2023-02-01T08:41:09;7.30;99.90
32187;DHT22;18686;53.084;8.872;2023-02-01T08:43:40;7.70;99.90
32187;DHT22;18686;53.084;8.872;2023-02-01T08:46:09;8.20;99.90
32187;DHT22;18686;53.084;8.872;2023-02-01T08:48:38;8.70;99.90
32187;DHT22;18686;53.084;8.872;2023-02-01T08:51:09;9.20;99.90
32187;DHT22;18686;53.084;8.872;2023-02-01T08:53:39;9.30;99.90
32187;DHT22;18686;53.084;8.872;2023-02-01T08:56:09;9.40;99.90
32187;DHT22;18686;53.084;8.872;2023-02-01T08:58:39;9.50;99.90
32187;DHT22;18686;53.084;8.872;2023-02-01T09:01:09;9.40;99.90
32187;DHT22;18686;53.084;8.872;2023-02-01T09:03:37;9.10;99.90
32187;DHT22;18686;53.084;8.872;2023-02-01T09:06:07;8.80;99.90
32187;DHT22;18686;53.084;8.872;2023-02-01T09:08:36;8.60;99.90
32187;DHT22;18686;53.084;8.872;2023-02-01T09:11:07;8.40;99.90
32187;DHT22;18686;53.084;8.872;2023-02-01T09:13:35;8.20;99.90
32187;DHT22;18686;53.084;8.872;2023-02-01T09:16:05;8.20;99.90
32187;DHT22;18686;53.084;8.872;2023-02-01T09:18:34;8.20;99.90
32187;DHT22;18686;53.084;8.872;2023-02-01T09:21:04;8.10;99.90
32187;DHT22;18686;53.084;8.872;2023-02-01T09:23:33;8.10;99.90
32187;DHT22;18686;53.084;8.872;2023-02-01T09:26:02;8.10;99.90
32187;DHT22;18686;53.084;8.872;2023-02-01T09:28:31;8.20;99.90
32187;DHT22;18686;53.084;8.872;2023-02-01T09:31:00;8.30;99.90
32187;DHT22;18686;53.084;8.872;2023-02-01T09:33:30;8.50;99.90
32187;DHT22;18686;53.084;8.872;2023-02-01T09:36:00;8.50;99.90
32187;DHT22;18686;53.084;8.872;2023-02-01T09:38:29;8.60;99.90
32187;DHT22;18686;53.084;8.872;2023-02-01T09:40:59;8.60;99.90
32187;DHT22;18686;53.084;8.872;2023-02-01T09:43:37;8.50;99.90
32187;DHT22;18686;53.084;8.872;2023-02-01T09:46:20;8.50;99.90
32187;DHT22;18686;53.084;8.872;2023-02-01T09:48:53;8.50;99.90
32187;DHT22;18686;53.084;8.872;2023-02-01T09:51:25;8.30;99.90
32187;DHT22;18686;53.084;8.872;2023-02-01T09:53:59;8.20;99.90
32187;DHT22;18686;53.084;8.872;2023-02-01T09:56:34;8.20;99.90
32187;DHT22;18686;53.084;8.872;2023-02-01T09:59:10;8.10;99.90
32187;DHT22;18686;53.084;8.872;2023-02-01T10:01:45;8.10;99.90
32187;DHT22;18686;53.084;8.872;2023-02-01T10:04:16;8.00;99.90
32187;DHT22;18686;53.084;8.872;2023-02-01T10:09:44;8.00;99.90
32187;DHT22;18686;53.084;8.872;2023-02-01T10:12:57;8.00;99.90
32187;DHT22;18686;53.084;8.872;2023-02-01T10:15:34;7.90;99.90
32187;DHT22;18686;53.084;8.872;2023-02-01T10:18:17;7.90;99.90
32187;DHT22;18686;53.084;8.872;2023-02-01T10:20:59;7.90;99.90
32187;DHT22;18686;53.084;8.872;2023-02-01T10:26:45;8.00;99.90
32187;DHT22;18686;53.084;8.872;2023-02-01T10:29:17;7.90;99.90
32187;DHT22;18686;53.084;8.872;2023-02-01T10:31:46;7.80;99.90
32187;DHT22;18686;53.084;8.872;2023-02-01T10:34:21;7.80;99.90
32187;DHT22;18686;53.084;8.872;2023-02-01T10:36:54;7.80;99.90
32187;DHT22;18686;53.084;8.872;2023-02-01T10:39:23;7.70;99.90
32187;DHT22;18686;53.084;8.872;2023-02-01T10:41:52;7.70;99.90
32187;DHT22;18686;53.084;8.872;2023-02-01T10:44:25;7.60;99.90
32187;DHT22;18686;53.084;8.872;2023-02-01T10:46:54;7.50;99.90
32187;DHT22;18686;53.084;8.872;2023-02-01T10:49:26;7.40;99.90
32187;DHT22;18686;53.084;8.872;2023-02-01T10:52:05;7.40;99.90
32187;DHT22;18686;53.084;8.872;2023-02-01T10:54:39;7.30;99.90
32187;DHT22;18686;53.084;8.872;2023-02-01T10:57:10;7.30;99.90
32187;DHT22;18686;53.084;8.872;2023-02-01T10:59:38;7.20;99.90
32187;DHT22;18686;53.084;8.872;2023-02-01T11:02:19;7.20;99.90
32187;DHT22;18686;53.084;8.872;2023-02-01T11:04:48;7.10;99.90
32187;DHT22;18686;53.084;8.872;2023-02-01T11:07:23;7.00;99.90
32187;DHT22;18686;53.084;8.872;2023-02-01T11:09:54;6.90;99.90
32187;DHT22;18686;53.084;8.872;2023-02-01T11:12:27;6.80;99.90
32187;DHT22;18686;53.084;8.872;2023-02-01T11:15:11;6.70;99.90
32187;DHT22;18686;53.084;8.872;2023-02-01T11:17:42;6.70;99.90
32187;DHT22;18686;53.084;8.872;2023-02-01T11:20:16;6.70;99.90
32187;DHT22;18686;53.084;8.872;2023-02-01T11:22:54;6.60;99.90
32187;DHT22;18686;53.084;8.872;2023-02-01T11:25:23;6.50;99.90
32187;DHT22;18686;53.084;8.872;2023-02-01T11:27:56;6.40;99.90
32187;DHT22;18686;53.084;8.872;2023-02-01T11:30:31;6.30;99.90
32187;DHT22;18686;53.084;8.872;2023-02-01T11:33:02;6.20;99.90
32187;DHT22;18686;53.084;8.872;2023-02-01T11:35:36;6.20;99.90
32187;DHT22;18686;53.084;8.872;2023-02-01T11:38:15;6.20;99.90
32187;DHT22;18686;53.084;8.872;2023-02-01T11:40:46;6.10;99.90
32187;DHT22;18686;53.084;8.872;2023-02-01T11:43:19;6.10;99.90
32187;DHT22;18686;53.084;8.872;2023-02-01T11:45:55;6.00;99.90
32187;DHT22;18686;53.084;8.872;2023-02-01T11:48:25;5.90;99.90
32187;DHT22;18686;53.084;8.872;2023-02-01T11:51:13;5.80;99.90
32187;DHT22;18686;53.084;8.872;2023-02-01T11:54:08;5.70;99.90
32187;DHT22;18686;53.084;8.872;2023-02-01T11:56:42;5.70;99.90
32187;DHT22;18686;53.084;8.872;2023-02-01T11:59:28;5.60;99.90
32187;DHT22;18686;53.084;8.872;2023-02-01T12:02:15;5.60;99.90
32187;DHT22;18686;53.084;8.872;2023-02-01T12:07:44;5.40;99.90
32187;DHT22;18686;53.084;8.872;2023-02-01T12:10:25;5.40;99.90
32187;DHT22;18686;53.084;8.872;2023-02-01T12:13:06;5.40;99.90
32187;DHT22;18686;53.084;8.872;2023-02-01T12:15:46;5.40;99.90
32187;DHT22;18686;53.084;8.872;2023-02-01T12:18:43;5.40;99.90
32187;DHT22;18686;53.084;8.872;2023-02-01T12:21:23;5.40;99.90
32187;DHT22;18686;53.084;8.872;2023-02-01T12:24:15;5.40;99.90
32187;DHT22;18686;53.084;8.872;2023-02-01T12:27:02;5.30;99.90
32187;DHT22;18686;53.084;8.872;2023-02-01T12:29:59;5.10;99.90
32187;DHT22;18686;53.084;8.872;2023-02-01T12:32:39;4.90;99.90
32187;DHT22;18686;53.084;8.872;2023-02-01T12:35:38;4.80;99.90
32187;DHT22;18686;53.084;8.872;2023-02-01T12:38:23;4.70;99.90
32187;DHT22;18686;53.084;8.872;2023-02-01T12:41:06;4.60;99.90
32187;DHT22;18686;53.084;8.872;2023-02-01T12:43:41;4.50;99.90
32187;DHT22;18686;53.084;8.872;2023-02-01T12:46:13;4.50;99.90
32187;DHT22;18686;53.084;8.872;2023-02-01T12:48:53;4.50;99.90
32187;DHT22;18686;53.084;8.872;2023-02-01T12:51:27;4.50;99.90
32187;DHT22;18686;53.084;8.872;2023-02-01T12:54:00;4.50;99.90
32187;DHT22;18686;53.084;8.872;2023-02-01T12:56:35;4.60;99.90
32187;DHT22;18686;53.084;8.872;2023-02-01T12:59:13;4.70;99.90
32187;DHT22;18686;53.084;8.872;2023-02-01T13:01:48;4.80;99.90
32187;DHT22;18686;53.084;8.872;2023-02-01T13:04:23;5.20;99.90
32187;DHT22;18686;53.084;8.872;2023-02-01T13:06:57;5.80;99.90
32187;DHT22;18686;53.084;8.872;2023-02-01T13:09:33;6.30;99.90
32187;DHT22;18686;53.084;8.872;2023-02-01T13:12:08;6.50;99.90
32187;DHT22;18686;53.084;8.872;2023-02-01T13:14:44;6.70;99.90
32187;DHT22;18686;53.084;8.872;2023-02-01T13:17:16;7.00;99.90
32187;DHT22;18686;53.084;8.872;2023-02-01T13:19:50;7.30;99.90
32187;DHT22;18686;53.084;8.872;2023-02-01T13:22:24;7.30;99.90
32187;DHT22;18686;53.084;8.872;2023-02-01T13:24:56;7.30;99.90
32187;DHT22;18686;53.084;8.872;2023-02-01T13:27:27;7.10;99.90
32187;DHT22;18686;53.084;8.872;2023-02-01T13:30:00;6.70;99.90
32187;DHT22;18686;53.084;8.872;2023-02-01T13:32:51;6.40;99.90
32187;DHT22;18686;53.084;8.872;2023-02-01T13:36:05;6.10;99.90
32187;DHT22;18686;53.084;8.872;2023-02-01T13:41:53;6.30;99.90
32187;DHT22;18686;53.084;8.872;2023-02-01T13:44:26;7.40;99.90
32187;DHT22;18686;53.084;8.872;2023-02-01T13:47:01;8.40;99.90
32187;DHT22;18686;53.084;8.872;2023-02-01T13:49:36;9.10;99.90
32187;DHT22;18686;53.084;8.872;2023-02-01T13:52:05;9.30;99.90
32187;DHT22;18686;53.084;8.872;2023-02-01T13:54:37;9.30;99.90
32187;DHT22;18686;53.084;8.872;2023-02-01T13:57:15;9.00;99.90
32187;DHT22;18686;53.084;8.872;2023-02-01T14:00:22;8.80;99.90
32187;DHT22;18686;53.084;8.872;2023-02-01T14:03:20;8.40;99.90
32187;DHT22;18686;53.084;8.872;2023-02-01T14:06:01;8.30;99.90
32187;DHT22;18686;53.084;8.872;2023-02-01T14:08:44;8.20;99.90
32187;DHT22;18686;53.084;8.872;2023-02-01T14:11:36;8.30;99.90
32187;DHT22;18686;53.084;8.872;2023-02-01T14:17:39;8.60;99.90
32187;DHT22;18686;53.084;8.872;2023-02-01T14:23:22;8.70;99.90
32187;DHT22;18686;53.084;8.872;2023-02-01T14:26:08;8.80;99.90
32187;DHT22;18686;53.084;8.872;2023-02-01T14:28:41;8.80;99.90
32187;DHT22;18686;53.084;8.872;2023-02-01T14:31:17;8.70;99.90
32187;DHT22;18686;53.084;8.872;2023-02-01T14:33:47;8.50;99.90
32187;DHT22;18686;53.084;8.872;2023-02-01T14:36:15;8.40;99.90
32187;DHT22;18686;53.084;8.872;2023-02-01T14:38:49;8.30;99.90
32187;DHT22;18686;53.084;8.872;2023-02-01T14:41:32;8.10;99.90
32187;DHT22;18686;53.084;8.872;2023-02-01T14:44:32;8.00;99.90
32187;DHT22;18686;53.084;8.872;2023-02-01T14:47:05;7.80;99.90
32187;DHT22;18686;53.084;8.872;2023-02-01T14:49:38;7.80;99.90
32187;DHT22;18686;53.084;8.872;2023-02-01T14:52:13;7.80;99.90
32187;DHT22;18686;53.084;8.872;2023-02-01T14:54:46;7.90;99.90
32187;DHT22;18686;53.084;8.872;2023-02-01T14:57:17;7.90;99.90
32187;DHT22;18686;53.084;8.872;2023-02-01T14:59:46;7.70;99.90
32187;DHT22;18686;53.084;8.872;2023-02-01T15:02:21;7.60;99.90
32187;DHT22;18686;53.084;8.872;2023-02-01T15:04:54;7.30;99.90
32187;DHT22;18686;53.084;8.872;2023-02-01T15:07:25;7.10;99.90
32187;DHT22;18686;53.084;8.872;2023-02-01T15:09:58;7.00;99.90
32187;DHT22;18686;53.084;8.872;2023-02-01T15:12:27;6.90;99.90
32187;DHT22;18686;53.084;8.872;2023-02-01T15:15:12;6.80;99.90
32187;DHT22;18686;53.084;8.872;2023-02-01T15:17:49;6.70;99.90
32187;DHT22;18686;53.084;8.872;2023-02-01T15:20:19;6.60;99.90
32187;DHT22;18686;53.084;8.872;2023-02-01T15:22:57;6.50;99.90
32187;DHT22;18686;53.084;8.872;2023-02-01T15:25:29;6.40;99.90
32187;DHT22;18686;53.084;8.872;2023-02-01T15:27:58;6.30;99.90
32187;DHT22;18686;53.084;8.872;2023-02-01T15:30:27;6.20;99.90
32187;DHT22;18686;53.084;8.872;2023-02-01T15:33:07;6.10;99.90
32187;DHT22;18686;53.084;8.872;2023-02-01T15:35:38;6.10;99.90
32187;DHT22;18686;53.084;8.872;2023-02-01T15:38:33;6.00;99.90
32187;DHT22;18686;53.084;8.872;2023-02-01T15:41:06;6.00;99.90
32187;DHT22;18686;53.084;8.872;2023-02-01T15:43:37;6.10;99.90
32187;DHT22;18686;53.084;8.872;2023-02-01T15:46:12;6.20;99.90
32187;DHT22;18686;53.084;8.872;2023-02-01T15:48:45;6.30;99.90
32187;DHT22;18686;53.084;8.872;2023-02-01T15:51:17;6.40;99.90
32187;DHT22;18686;53.084;8.872;2023-02-01T15:53:48;6.40;99.90
32187;DHT22;18686;53.084;8.872;2023-02-01T15:56:24;6.40;99.90
32187;DHT22;18686;53.084;8.872;2023-02-01T15:58:55;6.40;99.90
32187;DHT22;18686;53.084;8.872;2023-02-01T16:01:24;6.40;99.90
32187;DHT22;18686;53.084;8.872;2023-02-01T16:04:03;6.40;99.90
32187;DHT22;18686;53.084;8.872;2023-02-01T16:06:32;6.40;99.90
32187;DHT22;18686;53.084;8.872;2023-02-01T16:09:09;6.50;99.90
32187;DHT22;18686;53.084;8.872;2023-02-01T16:11:54;6.50;99.90
32187;DHT22;18686;53.084;8.872;2023-02-01T16:14:23;6.60;99.90
32187;DHT22;18686;53.084;8.872;2023-02-01T16:16:53;6.50;99.90
32187;DHT22;18686;53.084;8.872;2023-02-01T16:19:21;6.30;99.90
32187;DHT22;18686;53.084;8.872;2023-02-01T16:21:54;6.10;99.90
32187;DHT22;18686;53.084;8.872;2023-02-01T16:24:22;5.90;99.90
32187;DHT22;18686;53.084;8.872;2023-02-01T16:26:54;5.70;99.90
32187;DHT22;18686;53.084;8.872;2023-02-01T16:29:22;5.50;99.90
32187;DHT22;18686;53.084;8.872;2023-02-01T16:31:52;5.40;99.90
32187;DHT22;18686;53.084;8.872;2023-02-01T16:34:20;5.30;99.90
32187;DHT22;18686;53.084;8.872;2023-02-01T16:36:49;5.20;99.90
32187;DHT22;18686;53.084;8.872;2023-02-01T16:39:19;5.10;99.90
32187;DHT22;18686;53.084;8.872;2023-02-01T16:41:48;5.00;99.90
32187;DHT22;18686;53.084;8.872;2023-02-01T16:44:17;5.00;99.90
32187;DHT22;18686;53.084;8.872;2023-02-01T16:46:47;5.00;99.90